Time;durP1;ratioP1;P1;durP2;ratioP2;P2;SDS_P1;SDS_P2;PMS_P1;PMS_P2;Temp;Humidity;BMP_temperature;BMP_pressure;BME280_temperature;BME280_humidity;BME280_pressure;Samples;Min_cycle;Max_cycle;Signal;HPM_P1;HPM_P2
2023/12/11 00:03:37;;;;;;;15.30;7.70;;;;;;;2.66;89.01;98031.39;226580;1271;22537;-75
2023/12/11 00:08:40;;;;;;;15.00;7.90;;;;;;;2.66;88.93;98021.77;226514;1275;22568;-75
2023/12/11 00:13:42;;;;;;;14.30;7.90;;;;;;;2.61;88.59;98020.72;226408;1274;22832;-75
2023/12/11 00:18:44;;;;;;;14.20;7.20;;;;;;;2.55;88.79;98019.98;226602;1272;24671;-75
2023/12/11 00:23:47;;;;;;;15.40;7.70;;;;;;;2.51;88.69;98020.05;226582;1272;24946;-75
2023/12/11 00:28:49;;;;;;;16.60;8.50;;;;;;;2.46;88.58;98008.39;226424;1273;22550;-75
2023/12/11 00:33:51;;;;;;;15.00;7.90;;;;;;;2.40;88.58;97992.09;226473;1272;22914;-75
2023/12/11 00:38:53;;;;;;;17.80;8.80;;;;;;;2.33;88.47;97981.95;226601;1272;22535;-75
2023/12/11 00:43:56;;;;;;;20.60;9.70;;;;;;;2.25;88.50;97977.45;226599;1266;22722;-75
2023/12/11 00:48:58;;;;;;;18.10;9.60;;;;;;;2.19;88.60;97978.45;226506;1275;22575;-74
2023/12/11 00:54:00;;;;;;;16.80;8.70;;;;;;;2.14;88.69;97977.08;226573;1272;22547;-74
2023/12/11 00:59:02;;;;;;;18.90;8.60;;;;;;;2.11;88.74;97980.13;226504;1274;22547;-75
2023/12/11 01:04:04;;;;;;;17.80;9.50;;;;;;;2.09;88.74;97971.80;226539;1272;22544;-74
2023/12/11 01:09:07;;;;;;;17.00;9.10;;;;;;;2.07;88.74;97967.86;226364;1275;24646;-76
2023/12/11 01:14:09;;;;;;;19.90;10.30;;;;;;;2.05;88.64;97955.39;226561;1272;22534;-74
2023/12/11 01:19:11;;;;;;;21.50;11.80;;;;;;;2.03;88.72;97948.01;226464;1275;22544;-75
2023/12/11 01:24:13;;;;;;;20.40;9.40;;;;;;;2.00;88.76;97935.74;226591;1274;22533;-75
2023/12/11 01:29:15;;;;;;;18.20;9.60;;;;;;;1.98;88.79;97935.93;226446;1275;22830;-74
2023/12/11 01:34:17;;;;;;;20.80;11.20;;;;;;;1.98;88.90;97946.19;226543;1272;22591;-75
2023/12/11 01:39:20;;;;;;;21.80;13.30;;;;;;;2.01;88.91;97943.28;226265;1275;22539;-75
2023/12/11 01:44:22;;;;;;;24.10;13.60;;;;;;;2.04;88.93;97929.08;226581;1272;25259;-74
2023/12/11 01:49:25;;;;;;;22.20;12.20;;;;;;;2.07;88.94;97926.63;226505;1266;22548;-74
2023/12/11 01:54:27;;;;;;;26.00;13.30;;;;;;;2.08;88.65;97911.45;226473;1265;22540;-75
2023/12/11 01:59:29;;;;;;;24.50;12.10;;;;;;;2.11;88.88;97884.58;226461;1272;22544;-75
2023/12/11 02:04:32;;;;;;;17.70;10.80;;;;;;;2.17;88.84;97884.67;226492;1275;22980;-75
2023/12/11 02:09:34;;;;;;;23.20;11.40;;;;;;;2.19;88.73;97872.69;226427;1253;22537;-75
2023/12/11 02:14:36;;;;;;;21.80;10.80;;;;;;;2.20;88.74;97881.66;226251;1275;22548;-74
2023/12/11 02:19:38;;;;;;;20.60;11.30;;;;;;;2.21;88.76;97887.43;226477;1269;22602;-74
2023/12/11 02:24:58;;;;;;;20.50;11.50;;;;;;;2.21;88.75;97890.59;226395;1275;22575;-74
2023/12/11 02:30:00;;;;;;;22.70;11.80;;;;;;;2.17;88.67;97879.17;226503;1275;24337;-75
2023/12/11 02:35:02;;;;;;;21.20;12.20;;;;;;;2.12;88.58;97867.00;226541;1275;22573;-74
2023/12/11 02:40:05;;;;;;;23.60;12.80;;;;;;;2.08;88.68;97848.29;226470;1274;22566;-74
2023/12/11 02:45:07;;;;;;;25.40;13.70;;;;;;;2.11;89.16;97825.21;226531;1275;22549;-74
2023/12/11 02:50:09;;;;;;;22.30;13.90;;;;;;;2.16;89.30;97809.21;226645;1272;22544;-74
2023/12/11 02:55:11;;;;;;;29.10;15.40;;;;;;;2.21;89.27;97810.81;226631;1269;22548;-74
2023/12/11 03:00:14;;;;;;;19.00;12.40;;;;;;;2.25;89.43;97804.98;226523;1273;25684;-74
2023/12/11 03:05:16;;;;;;;23.10;12.40;;;;;;;2.28;89.41;97786.46;226517;1275;22540;-75
2023/12/11 03:10:18;;;;;;;19.50;10.90;;;;;;;2.27;89.39;97783.98;226512;1275;22536;-74
2023/12/11 03:15:20;;;;;;;19.80;11.00;;;;;;;2.22;89.12;97782.19;226511;1272;22533;-75
2023/12/11 03:20:22;;;;;;;18.00;10.90;;;;;;;2.21;89.17;97781.61;226480;1275;22594;-74
2023/12/11 03:25:24;;;;;;;19.00;9.90;;;;;;;2.23;89.46;97771.66;226625;1262;22558;-74
2023/12/11 03:30:26;;;;;;;17.30;11.60;;;;;;;2.26;89.45;97758.89;226607;1270;22599;-75
2023/12/11 03:35:28;;;;;;;18.70;10.30;;;;;;;2.28;89.49;97731.67;226493;1274;22671;-74
2023/12/11 03:40:30;;;;;;;16.90;10.00;;;;;;;2.29;89.26;97710.56;226460;1275;22539;-74
2023/12/11 03:45:32;;;;;;;15.00;10.40;;;;;;;2.28;89.21;97710.17;226438;1274;23017;-74
2023/12/11 03:50:34;;;;;;;16.40;9.60;;;;;;;2.28;89.41;97704.93;226501;1275;22547;-74
2023/12/11 03:55:36;;;;;;;16.10;9.80;;;;;;;2.29;89.31;97712.82;226585;1272;22551;-75
2023/12/11 04:00:38;;;;;;;17.10;9.80;;;;;;;2.32;89.59;97711.69;226475;1273;22561;-74
2023/12/11 04:05:40;;;;;;;15.20;8.30;;;;;;;2.34;89.18;97721.20;226604;1272;26164;-74
2023/12/11 04:10:42;;;;;;;17.50;9.50;;;;;;;2.35;89.14;97728.75;226567;1275;22548;-74
2023/12/11 04:15:44;;;;;;;16.50;9.20;;;;;;;2.32;88.86;97742.17;226489;1275;25375;-75
2023/12/11 04:20:46;;;;;;;17.10;10.40;;;;;;;2.30;88.75;97757.38;226492;1272;22969;-74
2023/12/11 04:25:48;;;;;;;17.30;10.10;;;;;;;2.30;88.78;97765.55;226317;1275;25980;-75
2023/12/11 04:30:51;;;;;;;18.30;10.30;;;;;;;2.30;88.88;97772.01;226488;1275;23647;-75
2023/12/11 04:35:53;;;;;;;18.40;9.20;;;;;;;2.30;88.83;97766.46;226578;1272;22563;-75
2023/12/11 04:40:55;;;;;;;13.20;9.00;;;;;;;2.30;88.92;97758.42;226591;1272;22542;-75
2023/12/11 04:45:57;;;;;;;14.80;8.70;;;;;;;2.34;89.03;97744.13;226576;1275;22557;-75
2023/12/11 04:50:59;;;;;;;12.60;7.50;;;;;;;2.39;89.01;97727.92;226422;1275;22553;-76
2023/12/11 04:56:08;;;;;;;14.50;7.10;;;;;;;2.45;89.08;97717.23;226438;1275;22523;-75
2023/12/11 05:01:10;;;;;;;11.30;7.00;;;;;;;2.52;88.71;97703.23;226497;1273;22991;-75
2023/12/11 05:06:12;;;;;;;13.20;5.50;;;;;;;2.60;88.23;97680.65;226472;1275;22562;-74
2023/12/11 05:11:14;;;;;;;9.60;4.70;;;;;;;2.70;87.89;97683.79;226427;1272;22568;-75
2023/12/11 05:16:16;;;;;;;8.50;4.80;;;;;;;2.81;87.64;97691.23;226551;1272;24260;-75
2023/12/11 05:21:18;;;;;;;7.00;4.00;;;;;;;2.91;87.25;97703.75;226542;1272;22544;-76
2023/12/11 05:26:21;;;;;;;6.70;4.30;;;;;;;2.94;86.79;97709.02;226561;1272;22683;-75
2023/12/11 05:31:23;;;;;;;9.40;4.80;;;;;;;2.94;86.51;97700.61;226433;1275;22539;-75
2023/12/11 05:36:25;;;;;;;6.40;4.00;;;;;;;2.98;86.45;97690.61;226453;1275;22538;-75
2023/12/11 05:41:27;;;;;;;8.70;4.40;;;;;;;3.00;86.05;97685.88;226284;1275;22550;-75
2023/12/11 05:46:29;;;;;;;8.10;4.70;;;;;;;2.98;85.82;97679.48;226576;1275;22606;-75
2023/12/11 05:51:31;;;;;;;6.00;3.80;;;;;;;2.92;85.57;97691.32;226268;1275;22552;-75
2023/12/11 05:56:33;;;;;;;8.40;4.30;;;;;;;2.84;85.93;97681.15;226320;1257;22556;-73
2023/12/11 06:01:35;;;;;;;6.90;4.10;;;;;;;2.79;86.02;97683.49;226413;1275;22536;-73
2023/12/11 06:06:38;;;;;;;8.50;4.60;;;;;;;2.76;85.96;97683.14;226257;1260;22528;-74
2023/12/11 06:11:40;;;;;;;8.60;4.40;;;;;;;2.72;86.12;97672.02;226211;1256;23039;-75
2023/12/11 06:16:42;;;;;;;6.90;3.90;;;;;;;2.69;86.34;97680.72;226138;1263;23028;-74
2023/12/11 06:21:44;;;;;;;8.20;4.40;;;;;;;2.68;86.53;97685.88;226272;1256;22671;-75
2023/12/11 06:26:46;;;;;;;6.50;4.10;;;;;;;2.64;86.68;97695.41;226152;1251;22545;-75
2023/12/11 06:31:48;;;;;;;8.20;4.50;;;;;;;2.61;86.89;97696.55;226275;1253;22584;-73
2023/12/11 06:36:50;;;;;;;8.50;4.70;;;;;;;2.59;87.00;97695.58;226354;1260;24362;-75
2023/12/11 06:41:53;;;;;;;7.50;4.50;;;;;;;2.60;87.13;97701.25;226163;1274;22538;-72
2023/12/11 06:46:55;;;;;;;7.20;4.40;;;;;;;2.69;87.44;97699.02;226195;1266;22577;-73
2023/12/11 06:51:57;;;;;;;6.90;3.60;;;;;;;2.84;87.51;97704.95;226231;1273;22563;-73
2023/12/11 06:56:59;;;;;;;8.40;4.90;;;;;;;2.96;87.45;97713.41;226087;1260;22552;-73
2023/12/11 07:02:04;;;;;;;9.00;4.80;;;;;;;3.06;87.29;97730.74;225906;1252;22535;-74
2023/12/11 07:07:06;;;;;;;8.80;4.90;;;;;;;3.14;87.13;97730.23;226136;1254;22583;-75
2023/12/11 07:12:09;;;;;;;8.20;5.20;;;;;;;3.22;87.14;97731.46;225920;1270;22535;-77
2023/12/11 07:17:11;;;;;;;7.90;4.90;;;;;;;3.31;87.08;97731.92;226077;1254;22547;-77
2023/12/11 07:22:13;;;;;;;8.50;5.20;;;;;;;3.38;86.73;97733.92;226046;1251;23096;-79
2023/12/11 07:27:15;;;;;;;8.40;5.50;;;;;;;3.43;86.78;97739.58;225944;1251;22557;-77
2023/12/11 07:32:18;;;;;;;9.30;4.90;;;;;;;3.48;86.73;97737.15;225904;1251;23058;-73
2023/12/11 07:37:21;;;;;;;8.80;5.30;;;;;;;3.52;86.54;97730.77;225550;1251;22936;-74
2023/12/11 07:42:23;;;;;;;7.80;5.00;;;;;;;3.52;86.36;97729.02;225616;1254;22605;-74
2023/12/11 07:47:25;;;;;;;10.20;5.20;;;;;;;3.53;86.56;97727.71;225629;1263;23240;-74
2023/12/11 07:52:29;;;;;;;10.40;5.90;;;;;;;3.55;86.25;97726.91;225475;1264;22553;-74
2023/12/11 07:57:31;;;;;;;7.70;5.60;;;;;;;3.55;86.27;97723.33;225651;1261;22562;-74
2023/12/11 08:02:37;;;;;;;10.20;5.50;;;;;;;3.51;86.39;97726.02;225744;1260;25293;-75
2023/12/11 08:07:39;;;;;;;9.10;6.30;;;;;;;3.48;86.47;97721.33;225608;1254;22559;-76
2023/12/11 08:12:41;;;;;;;9.60;6.10;;;;;;;3.51;86.52;97727.06;225604;1251;22549;-72
2023/12/11 08:17:43;;;;;;;10.30;5.90;;;;;;;3.65;86.74;97725.98;225912;1254;22561;-74
2023/12/11 08:22:45;;;;;;;10.70;5.40;;;;;;;3.79;86.50;97721.96;225948;1254;22533;-74
2023/12/11 08:27:47;;;;;;;9.80;6.30;;;;;;;3.93;86.41;97720.13;225823;1251;26437;-73
2023/12/11 08:32:50;;;;;;;9.00;5.90;;;;;;;4.04;86.29;97714.24;225739;1250;22556;-75
2023/12/11 08:37:52;;;;;;;10.60;6.20;;;;;;;4.13;86.00;97715.82;225970;1254;24094;-74
2023/12/11 08:42:54;;;;;;;9.70;5.40;;;;;;;4.23;85.97;97719.12;225955;1254;23260;-76
2023/12/11 08:47:56;;;;;;;9.60;5.20;;;;;;;4.34;85.69;97713.20;225848;1254;22537;-77
2023/12/11 08:53:03;;;;;;;11.80;6.40;;;;;;;4.43;85.78;97722.41;225682;1254;22535;-77
2023/12/11 08:58:05;;;;;;;9.60;5.90;;;;;;;4.46;85.59;97724.59;225857;1259;26206;-77
2023/12/11 09:03:07;;;;;;;8.40;5.30;;;;;;;4.45;85.38;97717.50;225827;1268;24408;-76
2023/12/11 09:08:09;;;;;;;9.30;5.60;;;;;;;4.49;85.34;97713.49;225837;1267;25256;-75
2023/12/11 09:13:11;;;;;;;11.60;6.70;;;;;;;4.56;85.33;97720.15;225943;1273;22527;-76
2023/12/11 09:18:13;;;;;;;8.60;5.00;;;;;;;4.59;85.06;97719.46;225749;1270;24393;-75
2023/12/11 09:23:16;;;;;;;9.20;5.90;;;;;;;4.52;84.89;97707.20;225921;1251;23099;-76
2023/12/11 09:28:18;;;;;;;10.00;6.10;;;;;;;4.50;84.93;97707.99;225894;1267;22567;-76
2023/12/11 09:33:20;;;;;;;9.90;6.10;;;;;;;4.64;85.07;97704.93;225880;1270;22539;-76
2023/12/11 09:38:22;;;;;;;9.90;5.90;;;;;;;4.75;84.95;97702.52;225989;1267;22536;-74
2023/12/11 09:43:25;;;;;;;10.00;5.60;;;;;;;4.78;84.68;97693.42;225964;1256;24758;-75
2023/12/11 09:48:27;;;;;;;10.40;6.10;;;;;;;4.78;84.50;97692.38;225960;1267;22565;-73
2023/12/11 09:53:32;;;;;;;10.20;5.50;;;;;;;4.74;84.55;97697.20;225902;1250;22607;-75
2023/12/11 09:58:35;;;;;;;10.30;5.60;;;;;;;4.70;84.57;97689.78;225677;1253;22624;-76
2023/12/11 10:03:37;;;;;;;9.10;5.10;;;;;;;4.66;84.45;97682.75;225780;1251;22924;-76
2023/12/11 10:08:45;;;;;;;9.50;5.50;;;;;;;4.60;84.65;97688.66;225932;1267;22981;-75
2023/12/11 10:13:47;;;;;;;9.30;5.30;;;;;;;4.60;84.78;97679.60;226387;1266;23530;-76
2023/12/11 10:18:52;;;;;;;6.50;4.60;;;;;;;4.65;84.55;97683.80;226128;1267;22680;-77
2023/12/11 10:24:03;;;;;;;7.50;5.00;;;;;;;4.66;84.72;97677.79;225769;1270;22559;-77
2023/12/11 10:29:21;;;;;;;9.80;5.70;;;;;;;4.69;84.84;97667.19;225664;1267;22623;-77
2023/12/11 10:34:41;;;;;;;9.00;5.70;;;;;;;4.92;84.73;97655.64;225898;1268;22583;-79
2023/12/11 10:39:55;;;;;;;9.60;5.90;;;;;;;5.13;84.31;97647.79;226064;1264;22555;-77
2023/12/11 10:44:57;;;;;;;9.50;6.10;;;;;;;5.27;84.49;97650.07;226000;1262;22580;-76
2023/12/11 10:50:02;;;;;;;8.60;5.40;;;;;;;5.38;84.14;97644.73;225783;1253;22615;-77
2023/12/11 10:55:05;;;;;;;8.80;5.40;;;;;;;5.48;83.54;97636.67;225792;1267;22606;-77
2023/12/11 11:00:08;;;;;;;10.00;5.90;;;;;;;5.55;83.53;97629.90;225826;1260;25398;-77
2023/12/11 11:05:12;;;;;;;7.40;5.50;;;;;;;5.63;83.43;97641.76;225654;1256;23027;-83
2023/12/11 11:10:20;;;;;;;10.80;7.70;;;;;;;5.70;82.93;97631.04;225623;1266;22569;-78
2023/12/11 11:15:28;;;;;;;8.00;5.40;;;;;;;5.76;82.79;97626.58;225703;1253;22532;-78
2023/12/11 11:20:31;;;;;;;15.80;6.40;;;;;;;5.77;82.79;97629.23;225656;1254;22540;-80
2023/12/11 11:25:36;;;;;;;9.40;5.30;;;;;;;5.84;83.05;97622.87;225647;1269;208448;-79
2023/12/11 11:30:45;;;;;;;8.40;5.40;;;;;;;5.90;82.76;97610.30;225808;1269;22546;-80
2023/12/11 11:35:50;;;;;;;8.00;4.90;;;;;;;5.94;82.37;97607.11;226056;1263;22955;-81
2023/12/11 11:40:52;;;;;;;6.30;4.60;;;;;;;5.93;82.03;97600.58;225697;1269;22705;-79
2023/12/11 11:45:55;;;;;;;7.10;5.10;;;;;;;5.91;81.85;97596.41;225664;1253;22574;-79
2023/12/11 11:50:58;;;;;;;6.80;5.10;;;;;;;5.92;82.04;97591.38;225563;1255;22576;-77
2023/12/11 11:56:01;;;;;;;7.50;5.10;;;;;;;5.92;82.22;97589.56;226023;1253;22540;-78
2023/12/11 12:01:04;;;;;;;7.10;5.30;;;;;;;5.96;82.13;97583.83;225866;1251;22583;-77
2023/12/11 12:06:08;;;;;;;7.50;5.00;;;;;;;6.01;82.02;97584.11;225701;1272;22802;-78
2023/12/11 12:11:11;;;;;;;9.20;6.00;;;;;;;6.06;82.31;97583.73;225770;1251;22568;-78
2023/12/11 12:16:28;;;;;;;8.10;5.80;;;;;;;6.14;82.34;97571.70;225786;1267;22599;-80
2023/12/11 12:21:30;;;;;;;7.70;5.10;;;;;;;6.19;82.35;97560.42;225967;1254;22547;-78
2023/12/11 12:26:35;;;;;;;9.60;5.50;;;;;;;6.20;81.96;97552.33;225910;1259;22532;-79
2023/12/11 12:31:38;;;;;;;8.50;5.60;;;;;;;6.19;81.91;97553.25;226065;1250;22623;-78
2023/12/11 12:36:42;;;;;;;8.90;6.10;;;;;;;6.16;81.69;97540.30;225907;1253;22613;-78
2023/12/11 12:41:47;;;;;;;7.90;5.30;;;;;;;6.09;81.23;97534.20;225875;1270;22542;-79
2023/12/11 12:46:53;;;;;;;9.20;5.80;;;;;;;6.07;81.58;97528.35;225912;1263;22539;-80
2023/12/11 12:51:55;;;;;;;7.70;5.50;;;;;;;6.06;81.27;97530.50;225844;1269;22543;-78
2023/12/11 12:56:58;;;;;;;10.60;6.10;;;;;;;6.03;81.70;97527.26;225885;1256;22539;-78
2023/12/11 13:02:01;;;;;;;9.70;5.70;;;;;;;6.04;81.72;97534.17;225925;1269;22610;-79
2023/12/11 13:07:10;;;;;;;10.60;5.50;;;;;;;6.11;81.85;97538.23;225877;1259;25358;-77
2023/12/11 13:12:18;;;;;;;9.60;5.30;;;;;;;6.19;82.10;97534.36;225814;1265;22553;-78
2023/12/11 13:17:20;;;;;;;6.50;4.60;;;;;;;6.25;81.46;97547.27;225879;1259;22567;-77
2023/12/11 13:22:22;;;;;;;7.50;5.00;;;;;;;6.25;81.37;97570.66;225842;1257;24225;-78
2023/12/11 13:27:26;;;;;;;8.30;4.80;;;;;;;6.19;81.49;97571.27;226029;1259;22681;-77
2023/12/11 13:32:29;;;;;;;9.30;5.60;;;;;;;6.16;81.52;97556.77;226012;1267;22548;-78
2023/12/11 13:37:31;;;;;;;9.90;5.30;;;;;;;6.15;81.41;97536.48;225938;1272;25885;-78
2023/12/11 13:42:36;;;;;;;6.10;4.80;;;;;;;6.11;81.56;97529.77;226169;1274;22574;-78
2023/12/11 13:47:39;;;;;;;7.90;5.20;;;;;;;6.11;81.74;97535.29;226181;1269;22583;-78
2023/12/11 13:52:41;;;;;;;7.20;4.90;;;;;;;6.11;81.73;97541.38;226044;1266;24241;-76
2023/12/11 13:57:43;;;;;;;7.50;4.90;;;;;;;6.07;81.50;97543.95;226008;1260;22722;-79
2023/12/11 14:02:45;;;;;;;7.60;5.20;;;;;;;5.99;81.51;97536.73;225902;1269;24729;-77
2023/12/11 14:08:05;;;;;;;9.40;5.50;;;;;;;5.87;81.75;97538.48;225967;1254;26474;-77
2023/12/11 14:13:12;;;;;;;8.70;5.50;;;;;;;5.74;81.43;97534.84;225848;1250;24793;-82
2023/12/11 14:18:15;;;;;;;9.20;6.20;;;;;;;5.56;81.80;97524.81;225547;1253;22568;-77
2023/12/11 14:23:17;;;;;;;9.00;5.60;;;;;;;5.42;82.24;97530.06;225722;1250;22565;-79
2023/12/11 14:28:19;;;;;;;8.20;4.90;;;;;;;5.32;82.34;97545.30;225823;1253;22556;-76
2023/12/11 14:33:21;;;;;;;9.70;5.90;;;;;;;5.24;82.98;97553.19;225716;1253;22541;-76
2023/12/11 14:38:24;;;;;;;10.50;7.10;;;;;;;5.17;83.15;97550.98;225429;1261;22587;-76
2023/12/11 14:43:26;;;;;;;11.00;6.60;;;;;;;5.10;83.25;97554.16;225807;1256;23263;-75
2023/12/11 14:48:30;;;;;;;10.10;6.30;;;;;;;5.03;83.41;97549.81;225747;1256;22560;-78
2023/12/11 14:53:32;;;;;;;10.00;5.80;;;;;;;5.03;83.72;97545.67;225629;1253;25397;-77
2023/12/11 14:58:35;;;;;;;10.90;8.00;;;;;;;4.99;84.08;97549.73;225825;1251;22897;-76
2023/12/11 15:03:37;;;;;;;8.90;6.30;;;;;;;4.97;84.16;97557.15;225691;1255;22655;-73
2023/12/11 15:08:41;;;;;;;9.30;7.00;;;;;;;4.96;84.18;97567.16;225715;1275;22536;-75
2023/12/11 15:13:43;;;;;;;10.00;6.50;;;;;;;4.97;84.33;97565.52;225744;1269;22549;-75
2023/12/11 15:18:46;;;;;;;10.90;6.80;;;;;;;4.96;84.45;97558.83;225860;1272;22562;-74
2023/12/11 15:23:50;;;;;;;12.70;7.40;;;;;;;4.94;84.84;97553.45;225832;1265;22942;-74
2023/12/11 15:28:52;;;;;;;12.90;7.50;;;;;;;4.91;84.85;97536.50;226208;1275;22614;-75
2023/12/11 15:33:54;;;;;;;11.30;6.90;;;;;;;4.89;84.65;97530.84;226414;1275;22709;-75
2023/12/11 15:38:57;;;;;;;13.00;7.50;;;;;;;4.85;84.55;97527.25;226366;1267;22650;-74
2023/12/11 15:43:59;;;;;;;10.30;6.60;;;;;;;4.81;84.97;97537.59;226208;1275;22575;-75
2023/12/11 15:49:01;;;;;;;10.30;6.50;;;;;;;4.82;84.67;97543.07;226288;1253;22590;-75
2023/12/11 15:54:04;;;;;;;10.40;6.60;;;;;;;4.83;84.93;97538.09;226368;1275;24950;-76
2023/12/11 15:59:06;;;;;;;9.20;6.10;;;;;;;4.84;85.30;97530.85;226349;1253;22577;-76
2023/12/11 16:04:08;;;;;;;11.40;6.00;;;;;;;4.87;85.42;97522.38;226270;1267;22536;-76
2023/12/11 16:09:12;;;;;;;10.60;5.60;;;;;;;4.92;85.01;97518.67;226336;1275;22539;-74
2023/12/11 16:14:14;;;;;;;9.60;5.80;;;;;;;4.96;85.19;97516.92;226458;1272;22550;-75
2023/12/11 16:19:17;;;;;;;9.40;6.00;;;;;;;4.98;85.06;97515.60;226337;1275;22553;-74
2023/12/11 16:24:19;;;;;;;10.20;6.20;;;;;;;4.97;85.14;97510.77;226352;1273;22558;-75
2023/12/11 16:29:21;;;;;;;9.70;5.70;;;;;;;4.96;85.13;97501.13;226295;1273;22646;-75
2023/12/11 16:34:23;;;;;;;11.50;6.20;;;;;;;4.96;84.98;97500.16;226352;1272;22548;-75
2023/12/11 16:39:25;;;;;;;9.90;6.10;;;;;;;4.94;84.75;97498.16;226323;1275;22566;-75
2023/12/11 16:44:28;;;;;;;11.00;6.40;;;;;;;4.92;85.08;97504.05;226336;1275;22626;-75
2023/12/11 16:49:30;;;;;;;9.00;5.70;;;;;;;4.92;85.46;97495.80;226272;1275;22545;-77
2023/12/11 16:54:35;;;;;;;12.00;6.30;;;;;;;4.92;85.22;97492.17;226399;1269;22571;-76
2023/12/11 16:59:37;;;;;;;11.60;6.90;;;;;;;4.90;85.12;97492.27;226242;1272;22591;-76
2023/12/11 17:04:39;;;;;;;10.40;6.80;;;;;;;4.88;85.13;97498.79;226261;1272;22544;-75
2023/12/11 17:09:42;;;;;;;11.10;6.70;;;;;;;4.86;85.36;97492.33;226284;1273;22596;-76
2023/12/11 17:14:44;;;;;;;12.40;7.40;;;;;;;4.84;85.08;97499.35;226307;1273;22624;-76
2023/12/11 17:19:46;;;;;;;11.50;7.60;;;;;;;4.85;85.31;97494.80;226365;1274;24406;-76
2023/12/11 17:24:48;;;;;;;10.90;7.10;;;;;;;4.84;85.30;97481.27;226311;1275;22554;-76
2023/12/11 17:29:51;;;;;;;11.00;6.90;;;;;;;4.83;85.16;97471.11;226317;1273;22539;-77
2023/12/11 17:34:53;;;;;;;10.20;6.20;;;;;;;4.83;85.35;97472.52;226360;1272;22539;-76
2023/12/11 17:39:55;;;;;;;12.60;7.90;;;;;;;4.83;85.35;97463.29;226258;1258;23056;-75
2023/12/11 17:44:58;;;;;;;11.20;6.60;;;;;;;4.82;85.30;97461.98;226281;1273;22530;-75
2023/12/11 17:50:01;;;;;;;11.40;7.60;;;;;;;4.80;85.26;97461.85;226285;1275;23036;-75
2023/12/11 17:55:08;;;;;;;12.50;8.20;;;;;;;4.79;85.59;97462.84;226265;1275;22558;-76
2023/12/11 18:00:10;;;;;;;11.60;7.40;;;;;;;4.77;85.41;97458.38;226376;1273;22532;-75
2023/12/11 18:05:15;;;;;;;11.30;6.70;;;;;;;4.75;85.28;97453.73;226154;1275;22544;-75
2023/12/11 18:10:18;;;;;;;12.30;6.90;;;;;;;4.73;85.68;97448.42;226281;1259;22563;-75
2023/12/11 18:15:20;;;;;;;8.80;6.60;;;;;;;4.72;85.66;97442.48;226292;1275;24384;-74
2023/12/11 18:20:22;;;;;;;9.50;6.80;;;;;;;4.72;85.75;97443.98;226241;1265;22527;-75
2023/12/11 18:25:24;;;;;;;10.00;6.60;;;;;;;4.73;85.57;97450.84;226368;1272;24433;-76
2023/12/11 18:30:27;;;;;;;10.60;6.80;;;;;;;4.74;85.74;97442.19;226328;1272;23422;-76
2023/12/11 18:35:29;;;;;;;10.40;6.20;;;;;;;4.76;85.67;97437.44;226150;1275;24407;-76
2023/12/11 18:40:31;;;;;;;10.00;6.40;;;;;;;4.78;85.65;97449.42;226219;1272;22592;-76
2023/12/11 18:45:33;;;;;;;11.00;7.30;;;;;;;4.79;85.66;97442.39;226148;1260;22548;-77
2023/12/11 18:50:36;;;;;;;14.00;8.20;;;;;;;4.79;85.48;97439.37;226208;1275;22541;-76
2023/12/11 18:55:38;;;;;;;11.70;7.90;;;;;;;4.79;85.32;97443.96;226301;1272;22559;-75
2023/12/11 19:00:40;;;;;;;12.20;7.80;;;;;;;4.81;85.70;97443.26;226145;1254;22908;-77
2023/12/11 19:05:42;;;;;;;11.60;7.80;;;;;;;4.83;85.42;97444.05;226247;1273;23095;-75
2023/12/11 19:10:45;;;;;;;12.40;7.70;;;;;;;4.87;85.77;97447.09;226227;1269;25262;-76
2023/12/11 19:15:47;;;;;;;10.20;7.20;;;;;;;4.90;85.78;97450.56;225950;1275;23011;-75
2023/12/11 19:20:49;;;;;;;10.60;6.10;;;;;;;4.98;85.44;97454.16;226181;1275;22565;-75
2023/12/11 19:25:52;;;;;;;14.10;8.30;;;;;;;5.04;85.36;97451.36;226338;1275;22661;-76
2023/12/11 19:30:55;;;;;;;12.40;8.30;;;;;;;5.04;85.20;97455.64;226262;1275;22472;-75
2023/12/11 19:35:57;;;;;;;13.30;8.30;;;;;;;5.02;85.20;97451.84;226185;1275;22546;-77
2023/12/11 19:40:59;;;;;;;11.70;8.50;;;;;;;4.98;85.02;97452.91;226306;1275;22604;-76
2023/12/11 19:46:07;;;;;;;14.60;9.90;;;;;;;4.94;85.03;97440.27;226234;1274;22584;-77
2023/12/11 19:51:13;;;;;;;14.40;8.80;;;;;;;4.90;85.06;97440.74;226286;1274;22588;-75
2023/12/11 19:56:22;;;;;;;15.30;9.70;;;;;;;4.88;85.14;97442.95;226183;1275;25353;-77
2023/12/11 20:01:29;;;;;;;12.50;9.10;;;;;;;4.85;84.93;97442.63;226414;1275;22578;-76
2023/12/11 20:06:33;;;;;;;11.20;7.70;;;;;;;4.83;85.77;97436.24;226392;1272;22530;-75
2023/12/11 20:11:38;;;;;;;12.90;8.90;;;;;;;4.80;85.69;97435.16;226216;1274;23451;-76
2023/12/11 20:16:41;;;;;;;11.10;7.70;;;;;;;4.77;85.34;97435.39;226146;1275;22597;-76
2023/12/11 20:21:44;;;;;;;12.00;8.10;;;;;;;4.73;85.67;97438.44;226069;1275;22587;-76
2023/12/11 20:26:46;;;;;;;13.60;8.50;;;;;;;4.70;85.56;97434.65;226372;1275;22583;-75
2023/12/11 20:31:51;;;;;;;12.70;9.10;;;;;;;4.69;85.71;97444.42;226296;1270;25369;-75
2023/12/11 20:36:54;;;;;;;15.50;8.90;;;;;;;4.68;85.72;97451.77;226065;1272;22980;-75
2023/12/11 20:41:56;;;;;;;13.30;9.40;;;;;;;4.69;85.38;97457.59;226240;1275;22638;-76
2023/12/11 20:46:59;;;;;;;15.50;9.80;;;;;;;4.69;85.73;97460.47;226238;1275;22539;-75
2023/12/11 20:52:01;;;;;;;17.00;10.80;;;;;;;4.67;85.84;97468.33;226205;1275;22590;-76
2023/12/11 20:57:03;;;;;;;13.50;8.70;;;;;;;4.64;86.15;97474.48;226175;1275;22551;-75
2023/12/11 21:02:05;;;;;;;15.80;10.50;;;;;;;4.61;86.40;97474.89;226044;1275;22548;-75
2023/12/11 21:07:07;;;;;;;16.10;10.50;;;;;;;4.61;86.32;97480.85;226094;1275;22608;-75
2023/12/11 21:12:09;;;;;;;15.70;10.50;;;;;;;4.60;86.59;97481.29;226289;1275;22741;-74
2023/12/11 21:17:11;;;;;;;15.30;10.30;;;;;;;4.63;86.77;97480.86;226268;1252;22564;-75
2023/12/11 21:22:14;;;;;;;17.00;10.60;;;;;;;4.65;86.85;97484.84;226235;1273;22618;-75
2023/12/11 21:27:16;;;;;;;14.20;8.80;;;;;;;4.69;86.94;97480.35;226294;1273;22577;-74
2023/12/11 21:32:18;;;;;;;15.80;9.50;;;;;;;4.71;86.66;97480.39;226141;1275;22562;-74
2023/12/11 21:37:20;;;;;;;16.30;10.10;;;;;;;4.74;86.65;97493.70;226250;1275;22547;-75
2023/12/11 21:42:23;;;;;;;13.70;9.30;;;;;;;4.75;86.73;97499.11;226339;1275;23150;-76
2023/12/11 21:47:25;;;;;;;14.20;8.40;;;;;;;4.77;87.24;97509.86;226255;1274;22565;-75
2023/12/11 21:52:28;;;;;;;14.20;9.70;;;;;;;4.78;88.01;97509.52;226141;1275;22546;-74
2023/12/11 21:57:30;;;;;;;14.30;8.80;;;;;;;4.76;87.79;97507.72;226126;1275;22570;-76
2023/12/11 22:02:32;;;;;;;14.00;9.10;;;;;;;4.76;88.62;97531.46;226269;1275;22905;-75
2023/12/11 22:07:41;;;;;;;13.70;9.00;;;;;;;4.74;88.30;97538.14;226223;1275;24981;-75
2023/12/11 22:12:44;;;;;;;13.60;9.60;;;;;;;4.70;89.01;97528.80;226072;1275;25491;-75
2023/12/11 22:17:47;;;;;;;16.10;9.90;;;;;;;4.69;88.46;97536.85;226259;1272;25248;-74
2023/12/11 22:22:53;;;;;;;15.60;9.90;;;;;;;4.66;88.60;97529.33;226174;1275;22606;-75
2023/12/11 22:27:55;;;;;;;14.40;10.40;;;;;;;4.62;88.18;97540.26;226236;1273;22554;-76
2023/12/11 22:32:57;;;;;;;16.00;10.00;;;;;;;4.61;88.39;97549.94;226268;1276;22582;-76
2023/12/11 22:37:59;;;;;;;16.60;10.50;;;;;;;4.56;88.42;97550.54;226211;1272;23013;-76
2023/12/11 22:43:01;;;;;;;16.90;10.50;;;;;;;4.50;88.44;97551.24;226164;1275;25334;-76
2023/12/11 22:48:04;;;;;;;18.50;11.60;;;;;;;4.46;88.76;97552.35;226107;1275;25123;-75
2023/12/11 22:53:06;;;;;;;17.10;11.20;;;;;;;4.45;88.88;97555.89;226285;1272;22557;-75
2023/12/11 22:58:09;;;;;;;16.10;11.10;;;;;;;4.43;88.80;97554.41;226300;1273;22547;-76
2023/12/11 23:03:18;;;;;;;16.00;10.70;;;;;;;4.39;89.06;97551.89;226235;1269;23051;-75
2023/12/11 23:08:20;;;;;;;16.50;11.20;;;;;;;4.35;89.11;97555.84;226169;1275;25015;-75
2023/12/11 23:13:22;;;;;;;18.40;12.90;;;;;;;4.34;89.44;97573.17;226088;1275;24365;-75
2023/12/11 23:18:24;;;;;;;20.70;12.60;;;;;;;4.34;89.07;97578.27;226215;1272;25249;-75
2023/12/11 23:23:26;;;;;;;18.70;12.30;;;;;;;4.32;89.49;97572.21;226056;1275;208407;-76
2023/12/11 23:28:28;;;;;;;22.20;13.20;;;;;;;4.28;89.32;97587.69;226255;1275;25389;-75
2023/12/11 23:33:30;;;;;;;17.50;12.10;;;;;;;4.25;89.35;97603.89;226203;1275;22580;-76